Time;durP1;ratioP1;P1;durP2;ratioP2;P2;SDS_P1;SDS_P2;PMS_P1;PMS_P2;Temp;Humidity;BMP_temperature;BMP_pressure;BME280_temperature;BME280_humidity;BME280_pressure;Samples;Min_cycle;Max_cycle;Signal;HPM_P1;HPM_P2
2022/11/22 00:00:17;;;;;;;3.20;2.10;;;7.90;99.90;;;;;;5054949;28;20021;-74
2022/11/22 00:02:43;;;;;;;4.80;1.95;;;7.80;99.90;;;;;;5056937;28;20033;-76
2022/11/22 00:05:09;;;;;;;4.07;1.98;;;7.80;99.90;;;;;;5073570;28;20028;-76
2022/11/22 00:07:34;;;;;;;5.60;2.28;;;7.80;99.90;;;;;;5068841;28;20052;-76
2022/11/22 00:10:00;;;;;;;5.05;2.17;;;7.80;99.90;;;;;;5059285;28;20459;-75
2022/11/22 00:12:25;;;;;;;4.45;2.40;;;7.80;99.90;;;;;;5054765;28;20088;-84
2022/11/22 00:14:51;;;;;;;7.35;2.35;;;7.90;99.90;;;;;;5069868;28;20025;-75
2022/11/22 00:17:16;;;;;;;5.78;2.10;;;7.90;99.90;;;;;;5054734;28;20025;-75
2022/11/22 00:19:42;;;;;;;4.53;1.70;;;7.80;99.90;;;;;;5052967;28;20037;-74
2022/11/22 00:22:07;;;;;;;4.95;2.05;;;7.80;99.90;;;;;;5055436;28;20038;-79
2022/11/22 00:24:33;;;;;;;7.90;2.50;;;7.80;99.90;;;;;;5052681;28;20057;-74
2022/11/22 00:26:59;;;;;;;4.55;2.38;;;7.90;99.90;;;;;;5056042;28;20029;-74
2022/11/22 00:29:25;;;;;;;8.25;2.00;;;7.90;99.90;;;;;;5073640;28;20052;-74
2022/11/22 00:31:50;;;;;;;5.88;1.95;;;7.90;99.90;;;;;;5072191;28;20025;-76
2022/11/22 00:34:16;;;;;;;4.10;2.03;;;8.00;99.90;;;;;;5068499;28;20390;-74
2022/11/22 00:36:42;;;;;;;4.97;2.22;;;8.00;99.90;;;;;;5053377;28;20071;-75
2022/11/22 00:39:07;;;;;;;6.03;1.92;;;7.90;99.90;;;;;;5069555;28;20098;-74
2022/11/22 00:41:33;;;;;;;5.05;2.33;;;7.90;99.90;;;;;;5052249;28;20041;-74
2022/11/22 00:43:58;;;;;;;4.22;1.80;;;7.90;99.90;;;;;;5063912;28;20032;-78
2022/11/22 00:46:24;;;;;;;4.28;2.17;;;7.90;99.90;;;;;;5061272;28;20481;-75
2022/11/22 00:48:50;;;;;;;7.57;2.42;;;7.90;99.90;;;;;;5050633;28;20044;-78
2022/11/22 00:51:16;;;;;;;5.40;1.98;;;7.90;99.90;;;;;;5056638;28;20412;-75
2022/11/22 00:53:41;;;;;;;3.78;1.95;;;7.90;99.90;;;;;;5070956;28;20025;-75
2022/11/22 00:56:07;;;;;;;5.85;1.80;;;8.00;99.90;;;;;;5052741;28;20108;-75
2022/11/22 00:58:32;;;;;;;2.47;1.35;;;8.00;99.90;;;;;;5057197;28;20073;-75
2022/11/22 01:00:58;;;;;;;4.18;1.73;;;8.00;99.90;;;;;;5072442;28;20029;-75
2022/11/22 01:03:24;;;;;;;2.65;1.30;;;8.00;99.90;;;;;;5074055;28;20047;-75
2022/11/22 01:05:50;;;;;;;3.95;1.52;;;8.00;99.90;;;;;;5073601;28;20245;-75
2022/11/22 01:08:15;;;;;;;5.25;2.03;;;8.00;99.90;;;;;;5072849;28;20462;-74
2022/11/22 01:10:41;;;;;;;3.00;1.40;;;8.00;99.90;;;;;;5072254;28;20044;-75
2022/11/22 01:13:06;;;;;;;1.80;1.10;;;8.10;99.90;;;;;;5073059;28;20060;-75
2022/11/22 01:15:32;;;;;;;1.95;1.13;;;8.10;99.90;;;;;;5072394;28;20046;-77
2022/11/22 01:17:58;;;;;;;2.55;1.40;;;8.10;99.90;;;;;;5073197;28;20037;-75
2022/11/22 01:20:24;;;;;;;2.88;1.00;;;8.10;99.90;;;;;;5072828;28;20477;-76
2022/11/22 01:22:50;;;;;;;4.38;1.30;;;8.10;99.90;;;;;;5072258;28;20031;-76
2022/11/22 01:25:15;;;;;;;3.38;1.45;;;8.10;99.90;;;;;;5073669;28;20024;-75
2022/11/22 01:27:41;;;;;;;3.38;1.13;;;8.20;99.90;;;;;;5072025;28;20032;-75
2022/11/22 01:30:07;;;;;;;4.13;1.52;;;8.20;99.90;;;;;;5073676;28;20025;-75
2022/11/22 01:32:32;;;;;;;4.22;1.05;;;8.20;99.90;;;;;;5072161;28;20150;-81
2022/11/22 01:34:58;;;;;;;2.92;1.13;;;8.20;99.90;;;;;;5073809;28;20392;-74
2022/11/22 01:37:24;;;;;;;3.88;1.30;;;8.20;99.90;;;;;;5072413;28;20020;-75
2022/11/22 01:39:49;;;;;;;3.03;1.00;;;8.20;99.90;;;;;;5071952;28;20511;-75
2022/11/22 01:42:15;;;;;;;6.85;1.40;;;8.20;99.90;;;;;;5073505;28;20454;-75
2022/11/22 01:44:42;;;;;;;3.13;1.05;;;8.20;99.90;;;;;;5071858;28;20052;-75
2022/11/22 01:47:19;;;;;;;3.65;1.10;;;8.20;99.90;;;;;;5073453;28;20032;-75
2022/11/22 01:49:54;;;;;;;4.95;1.42;;;8.30;99.90;;;;;;5071483;28;20082;-75
2022/11/22 01:52:25;;;;;;;2.58;1.00;;;8.30;99.90;;;;;;5072222;28;20025;-74
2022/11/22 01:54:56;;;;;;;4.25;1.02;;;8.30;99.90;;;;;;5072929;28;20045;-75
2022/11/22 01:57:27;;;;;;;1.45;1.00;;;8.30;99.90;;;;;;5072379;28;20054;-75
2022/11/22 01:59:58;;;;;;;3.88;1.02;;;8.30;99.90;;;;;;5071774;28;20093;-75
2022/11/22 02:02:24;;;;;;;6.28;1.35;;;8.30;99.90;;;;;;5072097;28;20473;-75
2022/11/22 02:04:52;;;;;;;3.65;1.30;;;8.30;99.90;;;;;;5071550;28;20028;-75
2022/11/22 02:07:30;;;;;;;2.88;1.05;;;8.30;99.90;;;;;;5073221;28;20111;-75
2022/11/22 02:09:56;;;;;;;6.00;1.27;;;8.30;99.90;;;;;;5071816;28;20020;-75
2022/11/22 02:12:27;;;;;;;4.03;1.15;;;8.30;99.90;;;;;;5072532;28;20097;-75
2022/11/22 02:14:53;;;;;;;2.25;1.05;;;8.40;99.90;;;;;;5071504;28;20032;-75
2022/11/22 02:17:19;;;;;;;3.72;1.10;;;8.30;99.90;;;;;;5073013;28;20028;-74
2022/11/22 02:19:47;;;;;;;2.65;1.08;;;8.30;99.90;;;;;;5071303;28;20031;-75
2022/11/22 02:22:18;;;;;;;5.32;1.48;;;8.30;99.90;;;;;;5071666;28;20071;-75
2022/11/22 02:24:58;;;;;;;4.28;1.30;;;8.30;99.90;;;;;;5072645;28;20024;-75
2022/11/22 02:27:24;;;;;;;2.65;1.13;;;8.30;99.90;;;;;;5071866;28;20029;-75
2022/11/22 02:29:50;;;;;;;4.03;1.33;;;8.30;99.90;;;;;;5071372;28;20377;-75
2022/11/22 02:32:15;;;;;;;3.88;1.38;;;8.30;99.90;;;;;;5071631;28;20035;-75
2022/11/22 02:34:46;;;;;;;3.85;1.08;;;8.30;99.90;;;;;;5072235;28;20025;-75
2022/11/22 02:37:14;;;;;;;6.57;1.67;;;8.30;99.90;;;;;;5071876;28;20028;-74
2022/11/22 02:39:43;;;;;;;3.22;0.88;;;8.40;99.90;;;;;;5071112;28;20031;-75
2022/11/22 02:42:08;;;;;;;4.78;1.42;;;8.30;99.90;;;;;;5072880;28;20051;-74
2022/11/22 02:44:34;;;;;;;7.07;1.38;;;8.30;99.90;;;;;;5071182;28;20119;-86
2022/11/22 02:46:59;;;;;;;2.75;1.10;;;8.30;99.90;;;;;;5072570;28;20031;-74
2022/11/22 02:49:25;;;;;;;5.57;1.75;;;8.30;99.90;;;;;;5071094;28;20028;-74
2022/11/22 02:51:52;;;;;;;2.65;1.33;;;8.40;99.90;;;;;;5070588;28;20024;-74
2022/11/22 02:54:18;;;;;;;3.80;1.17;;;8.30;99.90;;;;;;5073050;28;20028;-74
2022/11/22 02:56:43;;;;;;;5.93;1.10;;;8.40;99.90;;;;;;5076338;28;20028;-75
2022/11/22 02:59:09;;;;;;;5.97;1.15;;;8.40;99.90;;;;;;5075692;28;20450;-74
2022/11/22 03:01:35;;;;;;;2.08;1.00;;;8.40;99.90;;;;;;5076485;28;20095;-86
2022/11/22 03:04:00;;;;;;;2.53;0.90;;;8.40;99.90;;;;;;5074842;28;20457;-74
2022/11/22 03:06:26;;;;;;;3.60;1.30;;;8.40;99.90;;;;;;5076330;28;20028;-74
2022/11/22 03:08:51;;;;;;;3.40;1.10;;;8.40;99.90;;;;;;5074694;28;20374;-75
2022/11/22 03:11:17;;;;;;;4.63;1.25;;;8.40;99.90;;;;;;5074905;28;20529;-74
2022/11/22 03:13:43;;;;;;;5.85;1.08;;;8.40;99.90;;;;;;5074385;28;20029;-74
2022/11/22 03:16:08;;;;;;;6.35;1.45;;;8.40;99.90;;;;;;5075917;28;20031;-74
2022/11/22 03:18:35;;;;;;;4.38;1.20;;;8.40;99.90;;;;;;5075012;28;20078;-74
2022/11/22 03:21:08;;;;;;;5.95;1.20;;;8.40;99.90;;;;;;5075701;28;20090;-74
2022/11/22 03:23:34;;;;;;;6.43;1.25;;;8.40;99.90;;;;;;5076213;28;20036;-75
2022/11/22 03:26:07;;;;;;;6.22;1.20;;;8.40;99.90;;;;;;5075988;28;20465;-74
2022/11/22 03:28:32;;;;;;;4.80;1.20;;;8.30;99.90;;;;;;5076246;28;20082;-74
2022/11/22 03:30:58;;;;;;;5.18;1.23;;;8.30;99.90;;;;;;5074427;28;20024;-74
2022/11/22 03:33:23;;;;;;;4.38;1.20;;;8.30;99.90;;;;;;5075835;28;20024;-74
2022/11/22 03:35:49;;;;;;;5.50;1.50;;;8.20;99.90;;;;;;5074435;28;20017;-74
2022/11/22 03:38:15;;;;;;;8.70;1.13;;;8.20;99.90;;;;;;5074791;28;20021;-74
2022/11/22 03:40:45;;;;;;;5.97;1.25;;;8.20;99.90;;;;;;5074260;28;20025;-80
2022/11/22 03:43:10;;;;;;;4.25;1.15;;;8.20;99.90;;;;;;5075907;28;20045;-74
2022/11/22 03:45:36;;;;;;;5.10;1.17;;;8.20;99.90;;;;;;5075956;28;20035;-74
2022/11/22 03:48:01;;;;;;;6.97;1.50;;;8.20;99.90;;;;;;5074122;28;20016;-74
2022/11/22 03:50:27;;;;;;;4.85;1.67;;;8.10;99.90;;;;;;5075619;28;20366;-74
2022/11/22 03:52:52;;;;;;;4.88;1.08;;;8.10;99.90;;;;;;5073942;28;20154;-74
2022/11/22 03:55:18;;;;;;;8.65;1.52;;;8.10;99.90;;;;;;5075620;28;20046;-74
2022/11/22 03:57:44;;;;;;;7.85;0.93;;;8.10;99.90;;;;;;5075010;28;20070;-74
2022/11/22 04:00:11;;;;;;;5.07;1.10;;;8.20;99.90;;;;;;5074572;28;20035;-74
2022/11/22 04:02:36;;;;;;;10.52;1.83;;;8.10;99.90;;;;;;5074153;28;20063;-75
2022/11/22 04:05:02;;;;;;;9.63;1.52;;;8.10;99.90;;;;;;5074802;28;20454;-75
2022/11/22 04:07:28;;;;;;;11.30;1.30;;;8.10;99.90;;;;;;5073764;28;20029;-74
2022/11/22 04:09:53;;;;;;;9.27;1.45;;;8.10;99.90;;;;;;5073579;28;20029;-75
2022/11/22 04:12:19;;;;;;;11.65;1.50;;;8.10;99.90;;;;;;5073473;28;20048;-74
2022/11/22 04:17:45;;;;;;;9.85;1.42;;;8.00;99.90;;;;;;5075607;28;20124;-74
2022/11/22 04:23:19;;;;;;;7.13;1.17;;;8.00;99.90;;;;;;5074651;28;20154;-75
2022/11/22 04:25:50;;;;;;;6.30;1.50;;;8.00;99.90;;;;;;5073625;28;20402;-75
2022/11/22 04:28:17;;;;;;;13.80;1.60;;;8.00;99.90;;;;;;5075285;28;20077;-74
2022/11/22 04:33:28;;;;;;;3.47;1.15;;;8.00;99.90;;;;;;5074956;28;20047;-74
2022/11/22 04:35:54;;;;;;;5.53;1.10;;;8.00;99.90;;;;;;5073357;28;20025;-74
2022/11/22 04:38:20;;;;;;;7.73;1.33;;;7.90;99.90;;;;;;5073684;28;20462;-74
2022/11/22 04:40:46;;;;;;;8.88;1.58;;;7.90;99.90;;;;;;5073225;28;20098;-74
2022/11/22 04:46:04;;;;;;;7.50;1.65;;;7.90;99.90;;;;;;5074395;28;20090;-74
2022/11/22 04:48:30;;;;;;;8.70;1.20;;;7.90;99.90;;;;;;5073455;28;20029;-74
2022/11/22 04:53:39;;;;;;;8.07;1.23;;;7.80;99.90;;;;;;5074453;28;20032;-74
2022/11/22 04:56:05;;;;;;;9.20;1.60;;;7.80;99.90;;;;;;5073962;28;20033;-74
2022/11/22 04:58:30;;;;;;;6.53;1.30;;;7.80;99.90;;;;;;5074230;28;20454;-74
2022/11/22 05:00:56;;;;;;;8.85;1.42;;;7.80;99.90;;;;;;5074129;28;20234;-74
2022/11/22 05:03:22;;;;;;;5.80;1.27;;;7.80;99.90;;;;;;5054953;28;20451;-76
2022/11/22 05:05:47;;;;;;;9.18;1.30;;;7.70;99.90;;;;;;5055744;28;20051;-74
2022/11/22 05:08:13;;;;;;;8.85;1.48;;;7.70;99.90;;;;;;5053327;28;20032;-82
2022/11/22 05:10:57;;;;;;;7.68;1.40;;;7.70;99.90;;;;;;5052383;28;20045;-74
2022/11/22 05:13:27;;;;;;;6.47;1.33;;;7.60;99.90;;;;;;5053687;28;20091;-75
2022/11/22 05:15:53;;;;;;;5.15;0.98;;;7.60;99.90;;;;;;5054473;28;20036;-75
2022/11/22 05:18:19;;;;;;;6.43;1.25;;;7.60;99.90;;;;;;5060678;28;20111;-74
2022/11/22 05:20:45;;;;;;;6.03;1.05;;;7.60;99.90;;;;;;5059395;28;20036;-84
2022/11/22 05:25:56;;;;;;;9.48;1.23;;;7.60;99.90;;;;;;5053565;28;20082;-74
2022/11/22 05:28:21;;;;;;;9.45;1.40;;;7.60;99.90;;;;;;5053924;28;20112;-74
2022/11/22 05:30:47;;;;;;;9.68;1.55;;;7.60;99.90;;;;;;5052074;28;20432;-75
2022/11/22 05:33:13;;;;;;;11.73;2.05;;;7.60;99.90;;;;;;5052246;28;20088;-74
2022/11/22 05:35:38;;;;;;;9.40;1.70;;;7.60;99.90;;;;;;5071850;28;20029;-75
2022/11/22 05:38:04;;;;;;;8.40;1.70;;;7.60;99.90;;;;;;5071646;28;20046;-75
2022/11/22 05:40:29;;;;;;;11.05;1.42;;;7.60;99.90;;;;;;5063041;28;20029;-75
2022/11/22 05:42:58;;;;;;;7.53;1.23;;;7.60;99.90;;;;;;5065418;28;20037;-75
2022/11/22 05:45:23;;;;;;;9.75;1.45;;;7.60;99.90;;;;;;5056473;28;20048;-74
2022/11/22 05:47:49;;;;;;;10.47;1.73;;;7.60;99.90;;;;;;5063550;28;20048;-74
2022/11/22 05:50:15;;;;;;;9.15;1.73;;;7.50;99.90;;;;;;5051894;28;20384;-74
2022/11/22 05:52:40;;;;;;;7.30;1.10;;;7.50;99.90;;;;;;5064872;28;20029;-74
2022/11/22 05:55:06;;;;;;;6.37;1.10;;;7.60;99.90;;;;;;5072680;28;20433;-74
2022/11/22 05:57:32;;;;;;;6.78;1.10;;;7.60;99.90;;;;;;5071954;28;20025;-74
2022/11/22 05:59:58;;;;;;;6.32;1.13;;;7.60;99.90;;;;;;5071310;28;20032;-74
2022/11/22 06:02:24;;;;;;;9.65;1.33;;;7.60;99.90;;;;;;5057321;28;20064;-74
2022/11/22 06:04:49;;;;;;;4.90;1.00;;;7.60;99.90;;;;;;5052159;28;20108;-74
2022/11/22 06:07:15;;;;;;;10.88;1.10;;;7.60;99.90;;;;;;5058322;28;20447;-78
2022/11/22 06:09:40;;;;;;;5.78;1.65;;;7.60;99.90;;;;;;5052961;28;20032;-74
2022/11/22 06:12:06;;;;;;;11.40;1.23;;;7.60;99.90;;;;;;5051670;28;20494;-74
2022/11/22 06:14:32;;;;;;;7.23;0.90;;;7.70;99.90;;;;;;5062260;28;20024;-74
2022/11/22 06:16:57;;;;;;;6.57;1.00;;;7.70;99.90;;;;;;5071271;28;20031;-74
2022/11/22 06:19:23;;;;;;;11.23;1.40;;;7.70;99.90;;;;;;5071737;28;20032;-74
2022/11/22 06:21:49;;;;;;;7.35;1.17;;;7.60;99.90;;;;;;5072641;28;20100;-75
2022/11/22 06:24:14;;;;;;;10.20;1.33;;;7.70;99.90;;;;;;5073160;28;20035;-75
2022/11/22 06:26:40;;;;;;;7.13;0.88;;;7.70;99.90;;;;;;5071608;28;20050;-75
2022/11/22 06:29:05;;;;;;;7.88;1.45;;;7.70;99.90;;;;;;5070175;28;20028;-75
2022/11/22 06:31:31;;;;;;;7.90;1.00;;;7.70;99.90;;;;;;5069084;28;20032;-75
2022/11/22 06:33:58;;;;;;;6.15;1.05;;;7.70;99.90;;;;;;5056341;28;20025;-76
2022/11/22 06:36:29;;;;;;;8.63;1.60;;;7.60;99.90;;;;;;5071456;28;20458;-75
2022/11/22 06:38:55;;;;;;;5.43;0.98;;;7.60;99.90;;;;;;5072314;28;20032;-74
2022/11/22 06:41:26;;;;;;;4.45;0.88;;;7.70;99.90;;;;;;5072088;28;20033;-74
2022/11/22 06:43:53;;;;;;;7.88;1.10;;;7.70;99.90;;;;;;5066333;28;20406;-74
2022/11/22 06:46:20;;;;;;;4.68;1.30;;;7.60;99.90;;;;;;5052564;28;20113;-74
2022/11/22 06:48:46;;;;;;;4.40;0.90;;;7.60;99.90;;;;;;5063736;28;20032;-83
2022/11/22 06:51:15;;;;;;;5.40;1.40;;;7.60;99.90;;;;;;5071193;28;20060;-74
2022/11/22 06:53:41;;;;;;;8.17;1.20;;;7.70;99.90;;;;;;5032635;28;20029;-74
2022/11/22 06:56:11;;;;;;;5.40;0.90;;;7.70;99.90;;;;;;5030858;28;20025;-73
2022/11/22 06:58:37;;;;;;;7.68;1.33;;;7.70;99.90;;;;;;5055221;28;20044;-74
2022/11/22 07:01:09;;;;;;;6.57;1.10;;;7.70;99.90;;;;;;5070758;28;20021;-74
2022/11/22 07:03:35;;;;;;;6.97;1.23;;;7.70;99.90;;;;;;5056409;28;20090;-74
2022/11/22 07:06:02;;;;;;;8.85;1.35;;;7.70;99.90;;;;;;5050522;28;20037;-74
2022/11/22 07:08:28;;;;;;;7.78;1.92;;;7.70;99.90;;;;;;5052086;28;20086;-75
2022/11/22 07:10:53;;;;;;;9.23;1.10;;;7.70;99.90;;;;;;5064757;28;20044;-75
2022/11/22 07:13:19;;;;;;;5.72;1.30;;;7.60;99.90;;;;;;5054293;28;20453;-75
2022/11/22 07:15:58;;;;;;;7.03;1.13;;;7.70;99.90;;;;;;5067914;28;20079;-84
2022/11/22 07:18:24;;;;;;;7.97;1.05;;;7.70;99.90;;;;;;5060612;28;20033;-79
2022/11/22 07:20:50;;;;;;;8.00;1.10;;;7.70;99.90;;;;;;5071786;28;20519;-77
2022/11/22 07:23:16;;;;;;;7.75;1.05;;;7.80;99.90;;;;;;5070561;28;20039;-75
2022/11/22 07:25:45;;;;;;;6.50;1.10;;;7.80;99.90;;;;;;5066866;28;20040;-76
2022/11/22 07:28:12;;;;;;;8.27;1.27;;;7.80;99.90;;;;;;5051360;28;20028;-74
2022/11/22 07:30:39;;;;;;;9.15;1.50;;;7.80;99.90;;;;;;5063428;28;20020;-75
2022/11/22 07:33:05;;;;;;;8.60;1.70;;;7.80;99.90;;;;;;5061206;28;20036;-75
2022/11/22 07:35:30;;;;;;;9.35;1.60;;;7.80;99.90;;;;;;5053896;28;20037;-77
2022/11/22 07:37:56;;;;;;;6.22;1.52;;;7.80;99.90;;;;;;5064335;28;20489;-76
2022/11/22 07:40:21;;;;;;;4.03;1.27;;;7.90;99.90;;;;;;5062486;28;20048;-76
2022/11/22 07:42:47;;;;;;;7.53;1.30;;;7.90;99.90;;;;;;5062505;28;20119;-80
2022/11/22 07:45:12;;;;;;;3.65;1.17;;;7.90;99.90;;;;;;5070065;28;20036;-74
2022/11/22 07:47:38;;;;;;;4.47;1.15;;;7.90;99.90;;;;;;5058911;28;20032;-74
2022/11/22 07:50:04;;;;;;;4.13;1.15;;;7.90;99.90;;;;;;5068179;28;20481;-74
2022/11/22 07:52:30;;;;;;;10.95;1.42;;;8.00;99.90;;;;;;5065372;28;20028;-75
2022/11/22 07:54:56;;;;;;;6.00;1.60;;;8.00;99.90;;;;;;5074755;28;20029;-74
2022/11/22 07:57:21;;;;;;;9.20;1.55;;;8.00;99.90;;;;;;5056578;28;20431;-74
2022/11/22 07:59:47;;;;;;;8.07;1.73;;;8.00;99.90;;;;;;5059824;28;20025;-82
2022/11/22 08:02:13;;;;;;;5.75;1.20;;;8.00;99.90;;;;;;5057476;28;20531;-75
2022/11/22 08:04:38;;;;;;;7.07;1.50;;;8.00;99.90;;;;;;5055611;28;20394;-79
2022/11/22 08:07:04;;;;;;;4.53;1.65;;;8.00;99.90;;;;;;5063732;28;20021;-75
2022/11/22 08:09:30;;;;;;;9.52;1.65;;;8.00;99.90;;;;;;5073913;28;20052;-75
2022/11/22 08:11:55;;;;;;;7.68;1.40;;;8.00;99.90;;;;;;5063864;28;20048;-75
2022/11/22 08:14:22;;;;;;;10.82;1.60;;;8.00;99.90;;;;;;5058076;28;20029;-74
2022/11/22 08:16:47;;;;;;;8.63;1.40;;;8.00;99.90;;;;;;5060809;28;20029;-83
2022/11/22 08:19:16;;;;;;;6.68;1.35;;;8.00;99.90;;;;;;5061070;28;20025;-74
2022/11/22 08:21:43;;;;;;;3.92;1.20;;;8.00;99.90;;;;;;5062797;28;20037;-74
2022/11/22 08:24:08;;;;;;;5.82;1.48;;;8.00;99.90;;;;;;5063034;28;20128;-75
2022/11/22 08:26:34;;;;;;;9.38;1.80;;;8.00;99.90;;;;;;5073679;28;20115;-75
2022/11/22 08:29:03;;;;;;;5.57;1.60;;;8.00;99.90;;;;;;5066368;28;20021;-74
2022/11/22 08:31:29;;;;;;;7.75;1.38;;;8.10;99.90;;;;;;5071287;28;20539;-75
2022/11/22 08:33:55;;;;;;;4.60;1.27;;;8.10;99.90;;;;;;5069765;28;20104;-76
2022/11/22 08:36:21;;;;;;;5.30;1.35;;;8.10;99.90;;;;;;5064243;28;20383;-76
2022/11/22 08:38:46;;;;;;;9.65;1.65;;;8.10;99.90;;;;;;5059180;28;20111;-75
2022/11/22 08:41:12;;;;;;;6.15;1.83;;;8.10;99.90;;;;;;5072678;28;20143;-76
2022/11/22 08:43:38;;;;;;;8.98;1.40;;;8.10;99.90;;;;;;5073141;28;20040;-75
2022/11/22 08:46:05;;;;;;;6.13;1.15;;;8.20;99.90;;;;;;5065977;28;20029;-75
2022/11/22 08:48:33;;;;;;;6.72;1.25;;;8.20;99.90;;;;;;5054567;28;20063;-75
2022/11/22 08:51:05;;;;;;;5.43;1.35;;;8.20;99.90;;;;;;5058672;28;20126;-74
2022/11/22 08:53:33;;;;;;;6.82;1.10;;;8.20;99.90;;;;;;5054295;28;20486;-74
2022/11/22 08:56:00;;;;;;;6.95;1.48;;;8.20;99.90;;;;;;5059925;28;20032;-74
2022/11/22 08:58:28;;;;;;;4.22;1.40;;;8.20;99.90;;;;;;5064427;28;20032;-74
2022/11/22 09:00:53;;;;;;;5.93;1.45;;;8.20;99.90;;;;;;5051975;28;20016;-85
2022/11/22 09:03:19;;;;;;;7.85;1.20;;;8.30;99.90;;;;;;5056166;28;20099;-76
2022/11/22 09:05:45;;;;;;;9.13;1.23;;;8.30;99.90;;;;;;5058235;28;20039;-74
2022/11/22 09:08:10;;;;;;;7.63;1.48;;;8.30;99.90;;;;;;5070123;28;20019;-75
2022/11/22 09:10:36;;;;;;;5.20;1.40;;;8.30;99.90;;;;;;5052155;28;20061;-75
2022/11/22 09:13:02;;;;;;;5.40;1.20;;;8.30;99.90;;;;;;5058889;28;20033;-75
2022/11/22 09:15:27;;;;;;;7.03;1.10;;;8.30;99.90;;;;;;5059644;28;20025;-75
2022/11/22 09:18:00;;;;;;;7.18;1.52;;;8.30;99.90;;;;;;5059708;28;20086;-76
2022/11/22 09:20:26;;;;;;;3.58;1.50;;;8.30;99.90;;;;;;5060753;28;20074;-76
2022/11/22 09:22:52;;;;;;;8.00;1.40;;;8.40;99.90;;;;;;5058767;28;20029;-83
2022/11/22 09:25:18;;;;;;;8.02;1.38;;;8.40;99.90;;;;;;5059250;28;20086;-75
2022/11/22 09:27:43;;;;;;;8.30;1.50;;;8.40;99.90;;;;;;5062443;28;20036;-75
2022/11/22 09:30:10;;;;;;;3.78;1.58;;;8.50;99.90;;;;;;5051371;28;20032;-75
2022/11/22 09:32:35;;;;;;;6.22;1.23;;;8.50;99.90;;;;;;5046148;28;20036;-75
2022/11/22 09:35:01;;;;;;;3.42;0.93;;;8.50;99.90;;;;;;5047770;28;20025;-75
2022/11/22 09:37:26;;;;;;;6.10;1.20;;;8.50;99.90;;;;;;5054773;28;20521;-75
2022/11/22 09:39:52;;;;;;;6.22;1.30;;;8.50;99.90;;;;;;5055006;28;20020;-77
2022/11/22 09:42:38;;;;;;;7.55;1.30;;;8.50;99.90;;;;;;5052170;28;20033;-75
2022/11/22 09:45:19;;;;;;;7.13;1.48;;;8.60;99.90;;;;;;5055103;28;20053;-75
2022/11/22 09:47:59;;;;;;;9.98;1.52;;;8.70;99.90;;;;;;5052786;28;20025;-75
2022/11/22 09:50:56;;;;;;;5.65;1.60;;;8.70;99.90;;;;;;5051188;28;20024;-75
2022/11/22 09:53:45;;;;;;;8.82;1.38;;;8.80;99.90;;;;;;5065617;28;20039;-76
2022/11/22 09:56:13;;;;;;;3.78;0.80;;;8.80;99.90;;;;;;5067260;28;20020;-73
2022/11/22 09:58:51;;;;;;;6.82;1.13;;;8.80;99.90;;;;;;5052998;28;20063;-75
2022/11/22 10:01:21;;;;;;;8.32;1.30;;;8.80;99.90;;;;;;5051314;28;20021;-76
2022/11/22 10:04:02;;;;;;;8.60;1.15;;;8.90;99.90;;;;;;5050575;28;20040;-75
2022/11/22 10:06:37;;;;;;;5.53;1.10;;;8.90;99.90;;;;;;5051574;28;20454;-79
2022/11/22 10:09:31;;;;;;;5.80;0.90;;;8.90;99.90;;;;;;5058998;28;20024;-75
2022/11/22 10:12:02;;;;;;;6.82;1.20;;;8.90;99.90;;;;;;5056421;28;20148;-75
2022/11/22 10:14:45;;;;;;;4.50;0.85;;;8.90;99.90;;;;;;5065382;28;20032;-75
2022/11/22 10:17:16;;;;;;;5.72;0.70;;;8.90;99.90;;;;;;5064300;28;20056;-75
2022/11/22 10:20:05;;;;;;;9.43;1.13;;;9.00;99.90;;;;;;5055243;28;20037;-75
2022/11/22 10:22:32;;;;;;;4.75;1.02;;;9.00;99.90;;;;;;5046371;28;20032;-75
2022/11/22 10:24:59;;;;;;;6.25;1.17;;;9.00;99.90;;;;;;5064491;28;20089;-76
2022/11/22 10:27:31;;;;;;;6.78;1.30;;;9.00;99.90;;;;;;5053948;28;20044;-74
2022/11/22 10:30:03;;;;;;;5.68;1.30;;;9.00;99.90;;;;;;5060251;28;20032;-79
2022/11/22 10:32:41;;;;;;;7.40;1.30;;;9.00;99.90;;;;;;5053997;28;20163;-75
2022/11/22 10:35:12;;;;;;;4.28;1.02;;;9.00;99.90;;;;;;5063171;28;20029;-75
2022/11/22 10:37:47;;;;;;;8.70;1.27;;;9.00;99.90;;;;;;5060329;28;20479;-75
2022/11/22 10:40:26;;;;;;;7.72;1.20;;;9.10;99.90;;;;;;5060714;28;20438;-75
2022/11/22 10:43:22;;;;;;;5.13;0.95;;;9.10;99.90;;;;;;5063546;28;20040;-75
2022/11/22 10:45:59;;;;;;;5.82;1.10;;;9.10;99.90;;;;;;5051545;28;20116;-77
2022/11/22 10:48:42;;;;;;;7.65;1.15;;;9.10;99.90;;;;;;5063414;28;20021;-76
2022/11/22 10:51:27;;;;;;;5.78;1.00;;;9.20;99.90;;;;;;5058370;28;20033;-75
2022/11/22 10:54:14;;;;;;;7.10;1.15;;;9.20;99.90;;;;;;5041116;28;20033;-75
2022/11/22 10:56:58;;;;;;;6.60;1.17;;;9.30;99.90;;;;;;5054428;28;20055;-76
2022/11/22 10:59:45;;;;;;;6.97;1.05;;;9.30;99.90;;;;;;5062795;28;20051;-75
2022/11/22 11:02:32;;;;;;;5.35;0.90;;;9.30;99.90;;;;;;5056761;28;20120;-78
2022/11/22 11:04:59;;;;;;;4.15;0.90;;;9.40;99.90;;;;;;5064342;28;20040;-79
2022/11/22 11:07:26;;;;;;;8.27;2.22;;;9.40;99.90;;;;;;5055568;28;20466;-77
2022/11/22 11:09:53;;;;;;;9.60;1.63;;;9.40;99.90;;;;;;5056128;28;20072;-77
2022/11/22 11:12:23;;;;;;;6.70;1.63;;;9.40;99.90;;;;;;5050381;28;20084;-78
2022/11/22 11:14:54;;;;;;;6.93;1.58;;;9.40;99.90;;;;;;5052150;28;20044;-77
2022/11/22 11:17:28;;;;;;;4.72;1.50;;;9.40;99.90;;;;;;5073414;28;20060;-77
2022/11/22 11:19:58;;;;;;;6.60;1.42;;;9.40;99.90;;;;;;5075219;28;20033;-77
2022/11/22 11:22:27;;;;;;;8.38;1.02;;;9.50;99.90;;;;;;5061610;28;20449;-79
2022/11/22 11:24:52;;;;;;;4.72;1.00;;;9.50;99.90;;;;;;5055909;28;20029;-77
2022/11/22 11:27:19;;;;;;;3.83;0.88;;;9.50;99.90;;;;;;5061180;28;20398;-78
2022/11/22 11:29:48;;;;;;;7.05;1.15;;;9.60;99.90;;;;;;5064386;28;20092;-77
2022/11/22 11:32:19;;;;;;;5.20;1.42;;;9.60;99.90;;;;;;5067441;28;20813;-76
2022/11/22 11:35:06;;;;;;;4.43;1.00;;;9.60;99.90;;;;;;5068325;28;20472;-76
2022/11/22 11:37:37;;;;;;;2.15;0.70;;;9.60;99.90;;;;;;5071931;28;20078;-77
2022/11/22 11:40:04;;;;;;;5.35;1.00;;;9.60;99.90;;;;;;5070071;28;20386;-77
2022/11/22 11:42:32;;;;;;;5.53;1.08;;;9.60;99.90;;;;;;5051214;28;20028;-76
2022/11/22 11:45:24;;;;;;;4.95;0.80;;;9.70;99.90;;;;;;5065378;28;20045;-78
2022/11/22 11:47:50;;;;;;;2.78;0.82;;;9.70;99.90;;;;;;5059340;28;20025;-77
2022/11/22 11:50:27;;;;;;;8.80;1.08;;;9.80;99.90;;;;;;5059786;28;20118;-77
2022/11/22 11:53:03;;;;;;;3.17;0.82;;;9.80;99.90;;;;;;5060477;28;20036;-74
2022/11/22 11:55:35;;;;;;;4.93;0.60;;;9.90;99.90;;;;;;5062297;28;20828;-74
2022/11/22 11:58:18;;;;;;;6.25;1.00;;;9.90;99.90;;;;;;5073077;28;20123;-75
2022/11/22 12:00:44;;;;;;;;;;;9.90;99.90;;;;;;5055566;28;20386;-75
2022/11/22 12:03:14;;;;;;;3.00;1.00;;;9.90;99.90;;;;;;5043332;28;19935;-75
2022/11/22 12:05:39;;;;;;;4.28;1.02;;;9.90;99.90;;;;;;5050683;28;20374;-77
2022/11/22 12:08:27;;;;;;;4.75;0.98;;;9.90;99.90;;;;;;5054888;28;20029;-77
2022/11/22 12:11:07;;;;;;;2.40;0.80;;;10.00;99.90;;;;;;5067015;28;20406;-77
2022/11/22 12:14:09;;;;;;;4.50;0.90;;;10.00;99.90;;;;;;5071322;28;20086;-77
2022/11/22 12:16:40;;;;;;;3.92;0.70;;;9.90;99.90;;;;;;5022451;28;20119;-74
2022/11/22 12:19:27;;;;;;;7.20;1.13;;;9.90;99.90;;;;;;5053402;28;20033;-74
2022/11/22 12:22:04;;;;;;;2.00;0.43;;;10.00;99.90;;;;;;5044370;28;20029;-74
2022/11/22 12:24:44;;;;;;;4.55;0.93;;;10.00;99.90;;;;;;5064642;28;20028;-73
2022/11/22 12:27:11;;;;;;;4.50;0.70;;;10.00;99.90;;;;;;5071815;28;20488;-75
2022/11/22 12:29:40;;;;;;;3.88;1.15;;;10.00;99.90;;;;;;5071508;28;20040;-77
2022/11/22 12:32:22;;;;;;;2.88;0.52;;;10.10;99.90;;;;;;5058003;28;20036;-75
2022/11/22 12:34:54;;;;;;;7.38;1.00;;;10.10;99.90;;;;;;5073781;28;20025;-75
2022/11/22 12:37:45;;;;;;;3.17;0.80;;;10.10;99.90;;;;;;5073149;28;20032;-75
2022/11/22 12:40:22;;;;;;;5.88;0.95;;;10.20;99.90;;;;;;5072437;28;20059;-77
2022/11/22 12:42:53;;;;;;;2.83;0.65;;;10.20;99.90;;;;;;5066150;28;20040;-76
2022/11/22 12:45:33;;;;;;;6.90;1.13;;;10.10;99.90;;;;;;5061997;28;20532;-77
2022/11/22 12:48:17;;;;;;;3.28;0.50;;;10.20;99.90;;;;;;5058218;28;20474;-78
2022/11/22 12:50:47;;;;;;;2.05;0.50;;;10.10;99.90;;;;;;5060904;28;20457;-76
2022/11/22 12:53:14;;;;;;;1.98;0.50;;;10.20;99.90;;;;;;5053639;28;20127;-76
2022/11/22 12:55:50;;;;;;;4.03;0.80;;;10.20;99.90;;;;;;5053557;28;20033;-74
2022/11/22 12:58:23;;;;;;;4.18;1.40;;;10.20;99.90;;;;;;5055695;28;20028;-74
2022/11/22 13:01:04;;;;;;;5.10;0.73;;;10.20;99.90;;;;;;5045583;28;20047;-74
2022/11/22 13:03:37;;;;;;;3.10;1.08;;;10.10;99.90;;;;;;5059175;28;20115;-77
2022/11/22 13:06:06;;;;;;;2.28;0.50;;;10.10;99.90;;;;;;5055248;28;20067;-77
2022/11/22 13:08:51;;;;;;;2.40;0.77;;;10.10;99.90;;;;;;5054404;28;20036;-78
2022/11/22 13:11:24;;;;;;;3.30;0.50;;;10.10;99.90;;;;;;5058503;28;20052;-78
2022/11/22 13:13:55;;;;;;;2.03;0.50;;;10.10;99.90;;;;;;5061028;28;20116;-78
2022/11/22 13:16:20;;;;;;;4.70;0.67;;;10.10;99.90;;;;;;5058726;28;20103;-78
2022/11/22 13:19:20;;;;;;;1.02;0.40;;;10.10;99.90;;;;;;5061016;28;20492;-78
2022/11/22 13:22:18;;;;;;;2.10;0.60;;;10.10;99.90;;;;;;5051036;28;20040;-78